createdAt,value
2022-08-25T00:00:30.868Z,19.68
2022-08-25T00:03:13.901Z,19.63
2022-08-25T00:05:43.117Z,19.60
2022-08-25T00:08:11.877Z,19.57
2022-08-25T00:10:41.861Z,19.58
2022-08-25T00:13:10.805Z,19.58
2022-08-25T00:15:39.376Z,19.58
2022-08-25T00:18:19.980Z,19.59
2022-08-25T00:20:49.323Z,19.55
2022-08-25T00:23:18.417Z,19.44
2022-08-25T00:25:47.262Z,19.36
2022-08-25T00:28:16.348Z,19.33
2022-08-25T00:30:45.602Z,19.29
2022-08-25T00:33:14.425Z,19.25
2022-08-25T00:35:43.611Z,19.20
2022-08-25T00:38:13.421Z,19.16
2022-08-25T00:40:43.441Z,19.12
2022-08-25T00:43:13.304Z,19.08
2022-08-25T00:45:42.145Z,19.07
2022-08-25T00:48:10.924Z,19.07
2022-08-25T00:50:39.867Z,19.07
2022-08-25T00:53:09.247Z,19.06
2022-08-25T00:55:41.600Z,19.05
2022-08-25T00:58:17.890Z,19.04
2022-08-25T01:00:49.214Z,19.05
2022-08-25T01:03:19.260Z,19.04
2022-08-25T01:05:49.195Z,19.00
2022-08-25T01:08:20.538Z,18.96
2022-08-25T01:10:50.413Z,18.94
2022-08-25T01:13:26.118Z,18.91
2022-08-25T01:15:56.499Z,18.90
2022-08-25T01:18:26.697Z,18.86
2022-08-25T01:20:57.016Z,18.84
2022-08-25T01:23:26.273Z,18.84
2022-08-25T01:26:01.843Z,18.86
2022-08-25T01:28:30.759Z,18.88
2022-08-25T01:30:59.837Z,18.89
2022-08-25T01:33:28.838Z,18.89
2022-08-25T01:35:57.282Z,18.85
2022-08-25T01:38:26.084Z,18.80
2022-08-25T01:40:54.830Z,18.75
2022-08-25T01:43:36.324Z,18.71
2022-08-25T01:46:05.423Z,18.69
2022-08-25T01:48:34.172Z,18.68
2022-08-25T01:51:02.917Z,18.67
2022-08-25T01:53:33.676Z,18.64
2022-08-25T01:56:11.091Z,18.64
2022-08-25T01:58:43.599Z,18.64
2022-08-25T02:01:15.400Z,18.61
2022-08-25T02:03:47.178Z,18.57
2022-08-25T02:06:21.733Z,18.57
2022-08-25T02:09:01.066Z,18.56
2022-08-25T02:11:30.893Z,18.56
2022-08-25T02:14:00.387Z,18.54
2022-08-25T02:16:31.553Z,18.52
2022-08-25T02:19:00.613Z,18.49
2022-08-25T02:21:29.813Z,18.48
2022-08-25T02:23:58.846Z,18.45
2022-08-25T02:26:28.720Z,18.43
2022-08-25T02:28:57.430Z,18.42
2022-08-25T02:31:26.386Z,18.39
2022-08-25T02:33:55.069Z,18.37
2022-08-25T02:36:26.302Z,18.34
2022-08-25T02:38:55.096Z,18.32
2022-08-25T02:41:28.855Z,18.29
2022-08-25T02:44:02.007Z,18.26
2022-08-25T02:46:30.979Z,18.24
2022-08-25T02:48:59.527Z,18.25
2022-08-25T02:51:29.416Z,18.24
2022-08-25T02:53:59.059Z,18.20
2022-08-25T02:56:28.509Z,18.19
2022-08-25T02:58:57.670Z,18.19
2022-08-25T03:01:28.794Z,18.20
2022-08-25T03:03:58.273Z,18.20
2022-08-25T03:06:27.478Z,18.21
2022-08-25T03:08:56.623Z,18.23
2022-08-25T03:11:27.596Z,18.25
2022-08-25T03:13:56.374Z,18.25
2022-08-25T03:16:27.704Z,18.21
2022-08-25T03:18:55.989Z,18.18
2022-08-25T03:21:25.059Z,18.18
2022-08-25T03:23:53.793Z,18.19
2022-08-25T03:26:55.588Z,18.22
2022-08-25T03:29:29.078Z,18.23
2022-08-25T03:31:59.175Z,18.26
2022-08-25T03:34:58.452Z,18.27
2022-08-25T03:37:27.056Z,18.26
2022-08-25T03:39:56.101Z,18.26
2022-08-25T03:42:25.838Z,18.26
2022-08-25T03:44:55.427Z,18.27
2022-08-25T03:47:25.785Z,18.29
2022-08-25T03:49:54.590Z,18.32
2022-08-25T03:52:23.338Z,18.35
2022-08-25T03:54:52.436Z,18.38
2022-08-25T03:57:21.027Z,18.40
2022-08-25T03:59:49.882Z,18.42
2022-08-25T04:02:18.723Z,18.45
2022-08-25T04:04:47.660Z,18.48
2022-08-25T04:07:17.105Z,18.53
2022-08-25T04:09:45.964Z,18.55
2022-08-25T04:12:14.494Z,18.54
2022-08-25T04:14:43.437Z,18.52
2022-08-25T04:17:12.048Z,18.51
2022-08-25T04:19:40.705Z,18.50
2022-08-25T04:22:09.359Z,18.48
2022-08-25T04:24:38.213Z,18.48
2022-08-25T04:27:06.956Z,18.48
2022-08-25T04:29:35.813Z,18.48
2022-08-25T04:32:05.093Z,18.49
2022-08-25T04:34:33.778Z,18.49
2022-08-25T04:37:05.676Z,18.52
2022-08-25T04:39:33.615Z,18.57
2022-08-25T04:42:02.584Z,18.59
2022-08-25T04:44:33.588Z,18.62
2022-08-25T04:47:02.777Z,18.65
2022-08-25T04:49:31.623Z,18.69
2022-08-25T04:52:00.736Z,18.72
2022-08-25T04:54:29.572Z,18.78
2022-08-25T04:57:06.223Z,18.83
2022-08-25T04:59:37.619Z,18.89
2022-08-25T05:02:06.567Z,18.95
2022-08-25T05:04:37.127Z,18.96
2022-08-25T05:07:06.672Z,18.93
2022-08-25T05:09:37.094Z,18.92
2022-08-25T05:12:06.856Z,18.93
2022-08-25T05:14:35.664Z,18.96
2022-08-25T05:17:04.353Z,18.98
2022-08-25T05:19:33.569Z,18.99
2022-08-25T05:22:02.599Z,19.01
2022-08-25T05:24:31.230Z,19.05
2022-08-25T05:27:00.255Z,19.09
2022-08-25T05:29:29.138Z,19.15
2022-08-25T05:31:58.223Z,19.22
2022-08-25T05:34:26.652Z,19.29
2022-08-25T05:36:59.602Z,19.37
2022-08-25T05:39:31.777Z,19.48
2022-08-25T05:42:00.449Z,19.60
2022-08-25T05:44:30.840Z,19.71
2022-08-25T05:47:04.157Z,19.80
2022-08-25T05:49:32.714Z,19.92
2022-08-25T05:52:01.441Z,20.02
2022-08-25T05:54:31.071Z,20.13
2022-08-25T05:56:59.946Z,20.24
2022-08-25T05:59:29.586Z,20.33
2022-08-25T06:02:16.650Z,20.46
2022-08-25T06:04:45.749Z,20.57
2022-08-25T06:07:14.522Z,20.66
2022-08-25T06:09:45.847Z,20.76
2022-08-25T06:12:14.931Z,20.84
2022-08-25T06:14:44.586Z,20.93
2022-08-25T06:17:13.083Z,21.05
2022-08-25T06:19:41.777Z,21.17
2022-08-25T06:22:10.878Z,21.32
2022-08-25T06:24:39.508Z,21.47
2022-08-25T06:27:08.447Z,21.63
2022-08-25T06:29:37.048Z,21.83
2022-08-25T06:32:07.274Z,22.03
2022-08-25T06:34:36.034Z,22.26
2022-08-25T06:37:05.045Z,22.47
2022-08-25T06:39:33.865Z,22.66
2022-08-25T06:42:02.581Z,22.83
2022-08-25T06:44:31.780Z,23.00
2022-08-25T06:47:00.743Z,23.16
2022-08-25T06:49:31.914Z,23.32
2022-08-25T06:52:02.123Z,23.49
2022-08-25T06:54:30.908Z,23.62
2022-08-25T06:57:00.141Z,23.75
2022-08-25T06:59:32.288Z,23.89
2022-08-25T07:02:03.177Z,24.03
2022-08-25T07:04:32.999Z,24.18
2022-08-25T07:07:02.174Z,24.37
2022-08-25T07:09:31.483Z,24.61
2022-08-25T07:12:01.959Z,24.93
2022-08-25T07:14:30.676Z,25.23
2022-08-25T07:16:59.406Z,25.38
2022-08-25T07:19:28.152Z,25.40
2022-08-25T07:21:56.641Z,25.39
2022-08-25T07:24:25.617Z,25.38
2022-08-25T07:26:54.432Z,25.36
2022-08-25T07:29:31.901Z,25.29
2022-08-25T07:32:03.513Z,25.27
2022-08-25T07:34:51.912Z,25.36
2022-08-25T07:40:14.927Z,25.82
2022-08-25T07:42:43.672Z,26.08
2022-08-25T07:45:13.915Z,26.40
2022-08-25T07:47:45.784Z,26.66
2022-08-25T07:50:14.735Z,26.80
2022-08-25T07:52:43.290Z,26.81
2022-08-25T07:55:12.442Z,26.77
2022-08-25T07:57:49.865Z,26.75
2022-08-25T08:00:26.890Z,26.77
2022-08-25T08:02:56.046Z,26.85
2022-08-25T08:05:27.697Z,26.99
2022-08-25T08:07:55.702Z,27.17
2022-08-25T08:13:18.012Z,27.61
2022-08-25T08:15:47.855Z,27.98
2022-08-25T08:18:16.637Z,28.26
2022-08-25T08:20:46.462Z,28.46
2022-08-25T08:23:15.826Z,28.59
2022-08-25T08:25:44.446Z,28.66
2022-08-25T08:28:13.672Z,28.68
2022-08-25T08:30:53.387Z,28.68
2022-08-25T08:33:25.991Z,28.72
2022-08-25T08:36:05.284Z,28.74
2022-08-25T08:38:35.078Z,28.75
2022-08-25T08:42:07.697Z,28.74
2022-08-25T08:44:49.850Z,28.70
2022-08-25T08:47:31.138Z,28.77
2022-08-25T08:50:02.236Z,28.82
2022-08-25T08:52:52.517Z,28.81
2022-08-25T08:55:28.133Z,28.87
2022-08-25T08:58:00.551Z,29.01
2022-08-25T09:00:31.271Z,29.28
2022-08-25T09:03:05.143Z,29.56
2022-08-25T09:05:46.780Z,29.79
2022-08-25T09:08:20.516Z,29.90
2022-08-25T09:11:01.817Z,30.05
2022-08-25T09:13:45.591Z,30.19
2022-08-25T09:16:38.446Z,30.24
2022-08-25T09:19:24.533Z,30.26
2022-08-25T09:21:57.860Z,30.30
2022-08-25T09:24:45.238Z,30.35
2022-08-25T09:27:24.165Z,30.40
2022-08-25T09:30:05.517Z,30.42
2022-08-25T09:32:39.102Z,30.51
2022-08-25T09:35:15.086Z,30.55
2022-08-25T09:37:54.640Z,30.57
2022-08-25T09:40:23.958Z,30.59
2022-08-25T09:42:57.880Z,30.57
2022-08-25T09:45:40.131Z,30.59
2022-08-25T09:48:26.909Z,30.58
2022-08-25T09:51:01.809Z,30.47
2022-08-25T09:53:33.818Z,30.42
2022-08-25T09:56:06.910Z,30.44
2022-08-25T09:58:35.422Z,30.53
2022-08-25T10:01:14.053Z,30.66
2022-08-25T10:03:59.593Z,30.78
2022-08-25T10:06:34.013Z,30.83
2022-08-25T10:09:07.061Z,30.82
2022-08-25T10:11:41.617Z,30.77
2022-08-25T10:14:27.367Z,30.72
2022-08-25T10:17:14.359Z,30.69
2022-08-25T10:19:43.404Z,30.72
2022-08-25T10:22:20.759Z,30.76
2022-08-25T10:24:49.644Z,30.81
2022-08-25T10:27:30.893Z,30.78
2022-08-25T10:30:13.412Z,30.80
2022-08-25T10:33:02.834Z,30.85
2022-08-25T10:35:39.462Z,31.04
2022-08-25T10:38:27.274Z,31.20
2022-08-25T10:41:09.414Z,31.36
2022-08-25T10:43:45.516Z,31.45
2022-08-25T10:46:27.466Z,31.53
2022-08-25T10:49:13.189Z,31.56
2022-08-25T10:52:00.488Z,31.55
2022-08-25T10:54:46.532Z,31.57
2022-08-25T10:57:22.024Z,31.61
2022-08-25T11:00:00.569Z,31.61
2022-08-25T11:03:11.171Z,31.49
2022-08-25T11:05:46.004Z,31.33
2022-08-25T11:08:24.984Z,31.17
2022-08-25T11:10:59.859Z,30.99
2022-08-25T11:13:37.405Z,30.81
2022-08-25T11:16:17.621Z,30.67
2022-08-25T11:18:53.118Z,30.55
2022-08-25T11:21:26.897Z,30.43
2022-08-25T11:24:05.139Z,30.28
2022-08-25T11:26:37.747Z,30.17
2022-08-25T11:29:16.035Z,30.08
2022-08-25T11:31:52.833Z,29.96
2022-08-25T11:34:22.838Z,29.86
2022-08-25T11:36:57.005Z,29.78
2022-08-25T11:39:40.214Z,29.67
2022-08-25T11:42:25.893Z,29.57
2022-08-25T11:45:08.603Z,29.48
2022-08-25T11:48:09.543Z,29.34
2022-08-25T11:50:57.757Z,29.21
2022-08-25T11:53:28.984Z,29.02
2022-08-25T11:56:03.730Z,28.88
2022-08-25T11:58:38.097Z,28.85
2022-08-25T12:01:11.303Z,28.88
2022-08-25T12:04:14.836Z,28.93
2022-08-25T12:07:18.377Z,28.94
2022-08-25T12:10:24.906Z,28.95
2022-08-25T12:13:37.422Z,28.92
2022-08-25T12:16:07.103Z,28.87
2022-08-25T12:18:45.877Z,28.86
2022-08-25T12:21:29.976Z,28.85
2022-08-25T12:24:12.721Z,28.87
2022-08-25T12:26:51.363Z,28.85
2022-08-25T12:29:30.132Z,28.85
2022-08-25T12:32:22.641Z,28.83
2022-08-25T12:35:21.791Z,28.78
2022-08-25T12:38:03.981Z,28.77
2022-08-25T12:40:37.028Z,28.79
2022-08-25T12:43:09.781Z,28.81
2022-08-25T12:45:45.419Z,28.83
2022-08-25T12:49:04.321Z,28.79
2022-08-25T12:51:53.842Z,28.78
2022-08-25T12:54:32.422Z,28.80
2022-08-25T12:57:14.312Z,28.82
2022-08-25T12:59:49.630Z,28.85
2022-08-25T13:02:52.001Z,28.85
2022-08-25T13:05:47.326Z,28.88
2022-08-25T13:08:46.609Z,28.88
2022-08-25T13:11:30.736Z,28.89
2022-08-25T13:14:07.813Z,28.92
2022-08-25T13:16:39.082Z,28.89
2022-08-25T13:19:18.416Z,28.88
2022-08-25T13:21:48.405Z,28.95
2022-08-25T13:24:22.297Z,29.05
2022-08-25T13:26:55.203Z,29.15
2022-08-25T13:29:27.244Z,29.17
2022-08-25T13:31:59.350Z,29.16
2022-08-25T13:34:34.833Z,29.17
2022-08-25T13:37:27.655Z,29.18
2022-08-25T13:40:10.988Z,29.17
2022-08-25T13:42:42.515Z,29.15
2022-08-25T13:45:17.066Z,29.10
2022-08-25T13:47:47.668Z,29.08
2022-08-25T13:50:28.778Z,29.06
2022-08-25T13:52:59.707Z,29.05
2022-08-25T13:55:38.409Z,29.06
2022-08-25T13:58:24.809Z,29.11
2022-08-25T14:01:19.963Z,29.16
2022-08-25T14:04:17.514Z,29.18
2022-08-25T14:06:47.594Z,29.17
2022-08-25T14:09:27.987Z,29.14
2022-08-25T14:11:58.023Z,29.08
2022-08-25T14:14:35.377Z,29.02
2022-08-25T14:17:22.144Z,29.00
2022-08-25T14:20:00.304Z,29.01
2022-08-25T14:22:45.912Z,29.01
2022-08-25T14:25:15.456Z,29.04
2022-08-25T14:28:10.938Z,29.06
2022-08-25T14:30:52.273Z,29.06
2022-08-25T14:33:24.913Z,29.07
2022-08-25T14:35:57.682Z,29.06
2022-08-25T14:38:31.192Z,29.01
2022-08-25T14:41:00.730Z,28.93
2022-08-25T14:43:31.750Z,28.86
2022-08-25T14:46:03.236Z,28.78
2022-08-25T14:48:34.402Z,28.68
2022-08-25T14:51:04.851Z,28.58
2022-08-25T14:53:34.637Z,28.49
2022-08-25T14:56:08.640Z,28.40
2022-08-25T14:58:50.968Z,28.32
2022-08-25T15:01:29.206Z,28.26
2022-08-25T15:04:07.349Z,28.22
2022-08-25T15:06:38.845Z,28.17
2022-08-25T15:09:10.780Z,28.13
2022-08-25T15:11:44.494Z,28.09
2022-08-25T15:14:15.738Z,28.08
2022-08-25T15:16:49.616Z,28.08
2022-08-25T15:19:20.445Z,28.09
2022-08-25T15:21:50.678Z,28.10
2022-08-25T15:24:22.440Z,28.10
2022-08-25T15:26:55.486Z,28.12
2022-08-25T15:29:26.733Z,28.15
2022-08-25T15:31:55.664Z,28.15
2022-08-25T15:34:24.542Z,28.17
2022-08-25T15:36:53.466Z,28.19
2022-08-25T15:39:22.372Z,28.19
2022-08-25T15:41:51.758Z,28.20
2022-08-25T15:44:21.295Z,28.21
2022-08-25T15:46:50.449Z,28.21
2022-08-25T15:49:23.107Z,28.21
2022-08-25T15:51:53.214Z,28.22
2022-08-25T15:54:26.843Z,28.21
2022-08-25T15:56:56.540Z,28.21
2022-08-25T15:59:26.350Z,28.21
2022-08-25T16:01:58.699Z,28.19
2022-08-25T16:04:28.773Z,28.18
2022-08-25T16:06:58.694Z,28.16
2022-08-25T16:09:27.220Z,28.14
2022-08-25T16:11:58.996Z,28.12
2022-08-25T16:14:31.331Z,28.09
2022-08-25T16:17:00.024Z,28.05
2022-08-25T16:19:29.236Z,28.02
2022-08-25T16:21:58.469Z,27.98
2022-08-25T16:24:28.463Z,27.95
2022-08-25T16:27:11.403Z,27.92
2022-08-25T16:29:42.211Z,27.88
2022-08-25T16:32:13.317Z,27.84
2022-08-25T16:34:42.223Z,27.81
2022-08-25T16:37:11.030Z,27.77
2022-08-25T16:39:43.518Z,27.72
2022-08-25T16:42:12.513Z,27.68
2022-08-25T16:44:42.204Z,27.62
2022-08-25T16:47:13.975Z,27.57
2022-08-25T16:49:41.987Z,27.51
2022-08-25T16:52:30.708Z,27.44
2022-08-25T16:55:15.911Z,27.38
2022-08-25T16:57:47.925Z,27.30
2022-08-25T17:00:17.038Z,27.23
2022-08-25T17:02:45.826Z,27.15
2022-08-25T17:05:14.816Z,27.08
2022-08-25T17:08:03.691Z,27.01
2022-08-25T17:10:36.208Z,26.93
2022-08-25T17:13:05.625Z,26.85
2022-08-25T17:15:34.813Z,26.76
2022-08-25T17:18:04.665Z,26.66
2022-08-25T17:20:34.665Z,26.57
2022-08-25T17:23:12.103Z,26.50
2022-08-25T17:25:43.316Z,26.42
2022-08-25T17:28:12.980Z,26.34
2022-08-25T17:30:42.577Z,26.27
2022-08-25T17:33:11.507Z,26.21
2022-08-25T17:35:40.727Z,26.15
2022-08-25T17:38:10.560Z,26.10
2022-08-25T17:40:40.431Z,26.05
2022-08-25T17:43:09.848Z,25.99
2022-08-25T17:45:39.607Z,25.94
2022-08-25T17:48:09.074Z,25.89
2022-08-25T17:50:38.902Z,25.83
2022-08-25T17:53:09.291Z,25.77
2022-08-25T17:55:39.783Z,25.71
2022-08-25T17:58:16.095Z,25.64
2022-08-25T18:00:46.469Z,25.58
2022-08-25T18:03:15.236Z,25.53
2022-08-25T18:05:45.068Z,25.48
2022-08-25T18:08:15.807Z,25.45
2022-08-25T18:10:49.973Z,25.40
2022-08-25T18:13:19.459Z,25.35
2022-08-25T18:16:09.450Z,25.32
2022-08-25T18:18:39.316Z,25.28
2022-08-25T18:21:16.827Z,25.24
2022-08-25T18:23:58.436Z,25.21
2022-08-25T18:26:27.698Z,25.19
2022-08-25T18:29:05.959Z,25.16
2022-08-25T18:31:37.041Z,25.14
2022-08-25T18:34:10.347Z,25.09
2022-08-25T18:36:43.612Z,25.04
2022-08-25T18:39:34.904Z,25.00
2022-08-25T18:42:08.066Z,24.95
2022-08-25T18:44:36.800Z,24.90
2022-08-25T18:47:07.565Z,24.84
2022-08-25T18:49:36.850Z,24.78
2022-08-25T18:52:06.509Z,24.71
2022-08-25T18:57:39.935Z,24.57
2022-08-25T19:00:18.868Z,24.52
2022-08-25T19:03:18.972Z,24.45
2022-08-25T19:06:16.083Z,24.38
2022-08-25T19:12:46.593Z,24.24
2022-08-25T19:16:10.747Z,24.16
2022-08-25T19:18:54.022Z,24.10
2022-08-25T19:21:38.014Z,24.05
2022-08-25T19:24:08.954Z,24.03
2022-08-25T19:26:47.312Z,24.00
2022-08-25T19:29:23.215Z,23.97
2022-08-25T19:32:06.686Z,23.95
2022-08-25T19:34:42.114Z,23.91
2022-08-25T19:37:14.659Z,23.86
2022-08-25T19:39:53.008Z,23.82
2022-08-25T19:42:34.969Z,23.77
2022-08-25T19:45:15.425Z,23.71
2022-08-25T19:47:45.462Z,23.65
2022-08-25T19:50:16.920Z,23.58
2022-08-25T19:52:45.125Z,23.52
2022-08-25T19:55:14.525Z,23.44
2022-08-25T19:57:43.841Z,23.36
2022-08-25T20:00:16.922Z,23.24
2022-08-25T20:02:46.986Z,23.13
2022-08-25T20:05:23.570Z,23.05
2022-08-25T20:07:54.099Z,22.97
2022-08-25T20:10:24.310Z,22.89
2022-08-25T20:12:55.541Z,22.79
2022-08-25T20:15:25.467Z,22.72
2022-08-25T20:17:56.561Z,22.68
2022-08-25T20:20:32.641Z,22.64
2022-08-25T20:23:21.837Z,22.60
2022-08-25T20:25:51.487Z,22.54
2022-08-25T20:28:20.233Z,22.50
2022-08-25T20:30:48.997Z,22.46
2022-08-25T20:33:22.823Z,22.44
2022-08-25T20:35:53.062Z,22.43
2022-08-25T20:38:21.785Z,22.43
2022-08-25T20:40:50.509Z,22.44
2022-08-25T20:43:20.775Z,22.44
2022-08-25T20:45:49.772Z,22.43
2022-08-25T20:48:18.411Z,22.42
2022-08-25T20:50:57.390Z,22.42
2022-08-25T20:53:26.848Z,22.41
2022-08-25T20:55:55.741Z,22.41
2022-08-25T20:58:24.133Z,22.40
2022-08-25T21:00:55.424Z,22.40
2022-08-25T21:03:24.731Z,22.39
2022-08-25T21:05:54.050Z,22.37
2022-08-25T21:08:23.752Z,22.35
2022-08-25T21:10:54.204Z,22.33
2022-08-25T21:13:22.930Z,22.30
2022-08-25T21:15:51.582Z,22.25
2022-08-25T21:18:20.547Z,22.22
2022-08-25T21:20:49.100Z,22.20
2022-08-25T21:23:17.680Z,22.17
2022-08-25T21:25:46.497Z,22.17
2022-08-25T21:28:15.174Z,22.15
2022-08-25T21:30:44.797Z,22.14
2022-08-25T21:33:16.061Z,22.14
2022-08-25T21:35:44.712Z,22.12
2022-08-25T21:38:15.902Z,22.10
2022-08-25T21:40:45.058Z,22.06
2022-08-25T21:43:13.812Z,22.02
2022-08-25T21:45:46.851Z,21.99
2022-08-25T21:48:16.101Z,21.96
2022-08-25T21:50:44.926Z,21.90
2022-08-25T21:53:13.717Z,21.87
2022-08-25T21:55:43.863Z,21.83
2022-08-25T21:58:12.532Z,21.78
2022-08-25T22:00:44.252Z,21.75
2022-08-25T22:04:02.396Z,21.73
2022-08-25T22:06:31.781Z,21.69
2022-08-25T22:09:00.890Z,21.65
2022-08-25T22:11:29.408Z,21.63
2022-08-25T22:14:06.055Z,21.61
2022-08-25T22:16:36.710Z,21.56
2022-08-25T22:19:07.672Z,21.49
2022-08-25T22:21:41.294Z,21.43
2022-08-25T22:24:10.517Z,21.38
2022-08-25T22:26:40.196Z,21.36
2022-08-25T22:29:09.351Z,21.33
2022-08-25T22:31:38.675Z,21.30
2022-08-25T22:34:07.920Z,21.29
2022-08-25T22:36:38.339Z,21.27
2022-08-25T22:39:07.779Z,21.26
2022-08-25T22:41:36.552Z,21.22
2022-08-25T22:44:10.454Z,21.22
2022-08-25T22:46:39.034Z,21.21
2022-08-25T22:49:08.351Z,21.19
2022-08-25T22:51:37.311Z,21.15
2022-08-25T22:54:06.398Z,21.09
2022-08-25T22:56:39.158Z,21.03
2022-08-25T22:59:10.568Z,20.98
2022-08-25T23:01:39.650Z,20.94
2022-08-25T23:04:08.863Z,20.90
2022-08-25T23:06:40.129Z,20.91
2022-08-25T23:09:10.232Z,20.89
2022-08-25T23:11:39.468Z,20.88
2022-08-25T23:14:10.428Z,20.87
2022-08-25T23:16:41.912Z,20.81
2022-08-25T23:19:13.788Z,20.74
2022-08-25T23:22:00.739Z,20.69
2022-08-25T23:24:30.752Z,20.63
2022-08-25T23:27:01.488Z,20.59
2022-08-25T23:29:31.383Z,20.56
2022-08-25T23:32:00.154Z,20.55
2022-08-25T23:34:29.293Z,20.53
2022-08-25T23:36:58.405Z,20.51
2022-08-25T23:39:27.256Z,20.50
2022-08-25T23:41:55.950Z,20.46
2022-08-25T23:44:25.678Z,20.41
2022-08-25T23:46:54.902Z,20.38
2022-08-25T23:49:24.355Z,20.37
2022-08-25T23:51:55.038Z,20.36
2022-08-25T23:54:31.446Z,20.34
2022-08-25T23:57:00.451Z,20.35
2022-08-25T23:59:30.352Z,20.33
